sensor_id;sensor_type;location;lat;lon;timestamp;pressure;altitude;pressure_sealevel;temperature;humidity
78073;BME280;67281;48.770;11.440;2023-05-27T00:00:09;97944.50;;;21.77;39.32
78073;BME280;67281;48.770;11.440;2023-05-27T00:03:15;97946.09;;;21.96;39.40
78073;BME280;67281;48.770;11.440;2023-05-27T00:06:24;97942.56;;;21.87;40.02
78073;BME280;67281;48.770;11.440;2023-05-27T00:09:30;97941.59;;;21.62;39.45
78073;BME280;67281;48.770;11.440;2023-05-27T00:12:03;97943.44;;;21.54;39.22
78073;BME280;67281;48.770;11.440;2023-05-27T00:14:54;97949.16;;;21.75;39.05
78073;BME280;67281;48.770;11.440;2023-05-27T00:17:50;97943.72;;;21.85;39.22
78073;BME280;67281;48.770;11.440;2023-05-27T00:20:27;97942.56;;;21.87;39.53
78073;BME280;67281;48.770;11.440;2023-05-27T00:23:08;97941.19;;;21.83;39.33
78073;BME280;67281;48.770;11.440;2023-05-27T00:25:48;97937.97;;;21.72;39.77
78073;BME280;67281;48.770;11.440;2023-05-27T00:28:15;97942.75;;;21.60;39.68
78073;BME280;67281;48.770;11.440;2023-05-27T00:31:19;97941.44;;;21.64;39.19
78073;BME280;67281;48.770;11.440;2023-05-27T00:33:56;97940.66;;;21.72;39.91
78073;BME280;67281;48.770;11.440;2023-05-27T00:36:26;97933.19;;;21.83;39.34
78073;BME280;67281;48.770;11.440;2023-05-27T00:38:53;97932.75;;;21.96;39.10
78073;BME280;67281;48.770;11.440;2023-05-27T00:41:21;97929.97;;;21.72;39.27
78073;BME280;67281;48.770;11.440;2023-05-27T00:51:16;97933.72;;;21.87;39.49
78073;BME280;67281;48.770;11.440;2023-05-27T00:54:01;97924.97;;;21.69;40.24
78073;BME280;67281;48.770;11.440;2023-05-27T00:57:30;97927.38;;;21.88;38.99
78073;BME280;67281;48.770;11.440;2023-05-27T01:00:19;97929.84;;;21.39;39.60
78073;BME280;67281;48.770;11.440;2023-05-27T01:03:06;97933.09;;;21.51;40.14
78073;BME280;67281;48.770;11.440;2023-05-27T01:05:34;97929.91;;;21.47;40.28
78073;BME280;67281;48.770;11.440;2023-05-27T01:15:07;97932.50;;;21.73;39.75
78073;BME280;67281;48.770;11.440;2023-05-27T01:17:37;97931.38;;;21.84;39.59
78073;BME280;67281;48.770;11.440;2023-05-27T01:20:12;97926.16;;;21.74;39.93
78073;BME280;67281;48.770;11.440;2023-05-27T01:23:10;97916.75;;;21.62;39.41
78073;BME280;67281;48.770;11.440;2023-05-27T01:25:43;97917.34;;;21.40;39.76
78073;BME280;67281;48.770;11.440;2023-05-27T01:28:59;97922.56;;;21.49;40.04
78073;BME280;67281;48.770;11.440;2023-05-27T01:31:56;97918.28;;;21.64;39.68
78073;BME280;67281;48.770;11.440;2023-05-27T01:34:53;97911.75;;;21.51;39.77
78073;BME280;67281;48.770;11.440;2023-05-27T01:37:32;97910.09;;;21.24;39.61
78073;BME280;67281;48.770;11.440;2023-05-27T01:40:25;97913.75;;;21.57;40.01
78073;BME280;67281;48.770;11.440;2023-05-27T01:43:01;97918.72;;;21.44;39.73
78073;BME280;67281;48.770;11.440;2023-05-27T01:45:30;97914.56;;;21.49;40.04
78073;BME280;67281;48.770;11.440;2023-05-27T01:55:02;97904.53;;;21.43;39.56
78073;BME280;67281;48.770;11.440;2023-05-27T01:57:47;97912.13;;;21.30;40.10
78073;BME280;67281;48.770;11.440;2023-05-27T02:00:29;97911.69;;;21.17;39.82
78073;BME280;67281;48.770;11.440;2023-05-27T02:02:57;97909.41;;;21.48;40.15
78073;BME280;67281;48.770;11.440;2023-05-27T02:05:52;97913.81;;;21.31;40.15
78073;BME280;67281;48.770;11.440;2023-05-27T02:09:03;97904.53;;;21.43;39.67
78073;BME280;67281;48.770;11.440;2023-05-27T02:12:13;97907.84;;;21.37;40.28
78073;BME280;67281;48.770;11.440;2023-05-27T02:14:45;97899.78;;;21.03;39.53
78073;BME280;67281;48.770;11.440;2023-05-27T02:17:18;97898.03;;;20.94;40.32
78073;BME280;67281;48.770;11.440;2023-05-27T02:19:45;97905.19;;;20.93;40.67
78073;BME280;67281;48.770;11.440;2023-05-27T02:22:13;97901.66;;;21.11;40.54
78073;BME280;67281;48.770;11.440;2023-05-27T02:24:44;97898.53;;;21.15;39.73
78073;BME280;67281;48.770;11.440;2023-05-27T02:27:11;97899.81;;;21.11;39.79
78073;BME280;67281;48.770;11.440;2023-05-27T02:30:00;97895.69;;;21.17;40.01
78073;BME280;67281;48.770;11.440;2023-05-27T02:32:27;97899.31;;;21.08;39.89
78073;BME280;67281;48.770;11.440;2023-05-27T02:35:03;97897.16;;;20.85;40.48
78073;BME280;67281;48.770;11.440;2023-05-27T02:37:54;97893.19;;;20.63;40.02
78073;BME280;67281;48.770;11.440;2023-05-27T02:40:28;97890.16;;;20.58;41.05
78073;BME280;67281;48.770;11.440;2023-05-27T02:42:56;97891.56;;;20.71;40.66
78073;BME280;67281;48.770;11.440;2023-05-27T02:46:16;97892.50;;;20.87;40.75
78073;BME280;67281;48.770;11.440;2023-05-27T02:48:44;97894.78;;;20.74;40.45
78073;BME280;67281;48.770;11.440;2023-05-27T02:54:04;97892.50;;;20.87;41.30
78073;BME280;67281;48.770;11.440;2023-05-27T02:56:31;97899.50;;;20.62;41.16
78073;BME280;67281;48.770;11.440;2023-05-27T02:59:11;97894.50;;;20.85;40.45
78073;BME280;67281;48.770;11.440;2023-05-27T03:02:00;97895.91;;;20.97;40.95
78073;BME280;67281;48.770;11.440;2023-05-27T03:04:30;97889.13;;;20.77;41.50
78073;BME280;67281;48.770;11.440;2023-05-27T03:07:06;97890.38;;;20.65;40.99
78073;BME280;67281;48.770;11.440;2023-05-27T03:10:14;97888.38;;;20.67;39.93
78073;BME280;67281;48.770;11.440;2023-05-27T03:12:44;97885.72;;;20.67;41.23
78073;BME280;67281;48.770;11.440;2023-05-27T03:15:20;97891.81;;;20.59;41.05
78073;BME280;67281;48.770;11.440;2023-05-27T03:17:50;97889.84;;;20.44;41.38
78073;BME280;67281;48.770;11.440;2023-05-27T03:20:24;97896.47;;;20.40;40.70
78073;BME280;67281;48.770;11.440;2023-05-27T03:23:08;97897.16;;;20.42;41.22
78073;BME280;67281;48.770;11.440;2023-05-27T03:26:23;97891.28;;;20.74;41.19
78073;BME280;67281;48.770;11.440;2023-05-27T03:28:54;97887.19;;;20.87;40.04
78073;BME280;67281;48.770;11.440;2023-05-27T03:31:34;97894.31;;;20.61;40.91
78073;BME280;67281;48.770;11.440;2023-05-27T03:34:02;97890.31;;;20.57;42.05
78073;BME280;67281;48.770;11.440;2023-05-27T03:36:32;97891.13;;;20.75;41.52
78073;BME280;67281;48.770;11.440;2023-05-27T03:39:01;97894.88;;;20.47;41.20
78073;BME280;67281;48.770;11.440;2023-05-27T03:41:29;97892.81;;;20.41;40.99
78073;BME280;67281;48.770;11.440;2023-05-27T03:43:56;97887.16;;;20.79;40.62
78073;BME280;67281;48.770;11.440;2023-05-27T03:46:23;97883.16;;;20.57;40.68
78073;BME280;67281;48.770;11.440;2023-05-27T03:48:51;97890.97;;;20.59;41.42
78073;BME280;67281;48.770;11.440;2023-05-27T03:51:39;97885.34;;;20.62;41.22
78073;BME280;67281;48.770;11.440;2023-05-27T03:54:21;97891.53;;;20.45;41.35
78073;BME280;67281;48.770;11.440;2023-05-27T03:56:49;97898.53;;;20.46;41.53
78073;BME280;67281;48.770;11.440;2023-05-27T03:59:25;97889.84;;;20.44;41.06
78073;BME280;67281;48.770;11.440;2023-05-27T04:01:55;97888.06;;;20.17;41.04
78073;BME280;67281;48.770;11.440;2023-05-27T04:04:29;97893.16;;;20.28;41.99
78073;BME280;67281;48.770;11.440;2023-05-27T04:10:37;97893.78;;;20.22;41.47
78073;BME280;67281;48.770;11.440;2023-05-27T04:13:25;97892.38;;;20.45;40.18
78073;BME280;67281;48.770;11.440;2023-05-27T04:15:52;97903.16;;;20.44;40.66
78073;BME280;67281;48.770;11.440;2023-05-27T04:18:21;97895.38;;;20.68;40.18
78073;BME280;67281;48.770;11.440;2023-05-27T04:21:29;97900.19;;;20.47;40.93
78073;BME280;67281;48.770;11.440;2023-05-27T04:24:32;97893.88;;;20.48;40.86
78073;BME280;67281;48.770;11.440;2023-05-27T04:27:42;97895.06;;;20.35;41.10
78073;BME280;67281;48.770;11.440;2023-05-27T04:31:16;97904.97;;;20.25;41.69
78073;BME280;67281;48.770;11.440;2023-05-27T04:34:11;97899.91;;;20.50;40.67
78073;BME280;67281;48.770;11.440;2023-05-27T04:36:46;97903.16;;;20.44;40.98
78073;BME280;67281;48.770;11.440;2023-05-27T04:39:26;97899.59;;;20.53;41.38
78073;BME280;67281;48.770;11.440;2023-05-27T04:42:21;97895.16;;;20.61;40.56
78073;BME280;67281;48.770;11.440;2023-05-27T05:06:42;97905.16;;;20.85;40.12
78073;BME280;67281;48.770;11.440;2023-05-27T05:21:59;97899.44;;;20.80;40.59
78073;BME280;67281;48.770;11.440;2023-05-27T05:25:02;97901.84;;;20.91;40.06
78073;BME280;67281;48.770;11.440;2023-05-27T05:27:54;97905.19;;;20.93;39.91
78073;BME280;67281;48.770;11.440;2023-05-27T05:30:27;97906.97;;;20.59;40.49
78073;BME280;67281;48.770;11.440;2023-05-27T05:32:54;97902.91;;;20.73;40.39
78073;BME280;67281;48.770;11.440;2023-05-27T05:35:21;97908.56;;;20.70;40.14
78073;BME280;67281;48.770;11.440;2023-05-27T05:38:20;97910.78;;;20.39;40.25
78073;BME280;67281;48.770;11.440;2023-05-27T06:13:08;97913.66;;;20.89;40.18
78073;BME280;67281;48.770;11.440;2023-05-27T06:24:09;97917.31;;;20.88;39.40
78073;BME280;67281;48.770;11.440;2023-05-27T06:34:31;97916.69;;;20.68;40.17
78073;BME280;67281;48.770;11.440;2023-05-27T06:37:35;97907.03;;;20.67;40.24
78073;BME280;67281;48.770;11.440;2023-05-27T06:40:36;97913.28;;;20.84;39.60
78073;BME280;67281;48.770;11.440;2023-05-27T06:43:09;97909.59;;;20.77;40.03
78073;BME280;67281;48.770;11.440;2023-05-27T06:45:37;97917.28;;;20.80;39.73
78073;BME280;67281;48.770;11.440;2023-05-27T06:48:29;97915.44;;;20.80;40.07
78073;BME280;67281;48.770;11.440;2023-05-27T06:50:57;97916.63;;;20.86;39.32
78073;BME280;67281;48.770;11.440;2023-05-27T06:53:46;97924.78;;;20.84;39.75
78073;BME280;67281;48.770;11.440;2023-05-27T06:56:16;97912.44;;;20.75;39.66
78073;BME280;67281;48.770;11.440;2023-05-27T06:58:58;97923.91;;;20.76;39.44
78073;BME280;67281;48.770;11.440;2023-05-27T07:01:55;97919.28;;;20.78;39.58
78073;BME280;67281;48.770;11.440;2023-05-27T07:04:50;97920.28;;;20.85;39.70
78073;BME280;67281;48.770;11.440;2023-05-27T07:07:48;97916.25;;;20.81;39.44
78073;BME280;67281;48.770;11.440;2023-05-27T07:10:21;97911.16;;;20.87;39.76
78073;BME280;67281;48.770;11.440;2023-05-27T07:13:09;97917.94;;;20.82;39.57
78073;BME280;67281;48.770;11.440;2023-05-27T07:19:28;97920.03;;;20.96;39.82
78073;BME280;67281;48.770;11.440;2023-05-27T07:22:23;97917.63;;;20.85;39.20
78073;BME280;67281;48.770;11.440;2023-05-27T07:25:31;97916.59;;;20.78;40.30
78073;BME280;67281;48.770;11.440;2023-05-27T07:28:23;97918.75;;;21.00;40.13
78073;BME280;67281;48.770;11.440;2023-05-27T07:35:37;97920.13;;;20.86;39.70
78073;BME280;67281;48.770;11.440;2023-05-27T07:38:49;97917.22;;;20.97;39.86
78073;BME280;67281;48.770;11.440;2023-05-27T07:41:47;97915.09;;;21.01;39.79
78073;BME280;67281;48.770;11.440;2023-05-27T07:44:36;97916.22;;;20.98;39.75
78073;BME280;67281;48.770;11.440;2023-05-27T07:47:24;97912.09;;;21.04;39.94
78073;BME280;67281;48.770;11.440;2023-05-27T07:49:51;97907.97;;;21.10;39.67
78073;BME280;67281;48.770;11.440;2023-05-27T07:52:19;97910.34;;;21.13;39.04
78073;BME280;67281;48.770;11.440;2023-05-27T07:54:46;97911.13;;;21.05;39.76
78073;BME280;67281;48.770;11.440;2023-05-27T07:57:24;97912.16;;;21.12;39.57
78073;BME280;67281;48.770;11.440;2023-05-27T07:59:52;97911.47;;;21.10;39.76
78073;BME280;67281;48.770;11.440;2023-05-27T08:07:09;97901.72;;;21.19;39.30
78073;BME280;67281;48.770;11.440;2023-05-27T08:10:52;97899.66;;;21.13;39.51
78073;BME280;67281;48.770;11.440;2023-05-27T08:17:14;97902.69;;;21.18;38.92
78073;BME280;67281;48.770;11.440;2023-05-27T08:19:48;97901.88;;;21.17;39.17
78073;BME280;67281;48.770;11.440;2023-05-27T08:22:28;97901.94;;;21.25;40.01
78073;BME280;67281;48.770;11.440;2023-05-27T08:25:47;97897.81;;;21.31;39.45
78073;BME280;67281;48.770;11.440;2023-05-27T08:28:34;97892.78;;;21.28;39.50
78073;BME280;67281;48.770;11.440;2023-05-27T08:31:05;97903.16;;;21.31;39.27
78073;BME280;67281;48.770;11.440;2023-05-27T08:34:13;97901.47;;;21.30;39.08
78073;BME280;67281;48.770;11.440;2023-05-27T08:36:56;97894.34;;;21.39;39.47
78073;BME280;67281;48.770;11.440;2023-05-27T08:39:28;97895.19;;;21.39;39.24
78073;BME280;67281;48.770;11.440;2023-05-27T08:42:02;97894.50;;;21.37;39.09
78073;BME280;67281;48.770;11.440;2023-05-27T08:44:42;97887.19;;;21.39;39.23
78073;BME280;67281;48.770;11.440;2023-05-27T08:51:07;97880.66;;;21.34;39.39
78073;BME280;67281;48.770;11.440;2023-05-27T08:54:48;97881.19;;;21.37;39.54
78073;BME280;67281;48.770;11.440;2023-05-27T08:57:20;97878.72;;;21.44;38.98
78073;BME280;67281;48.770;11.440;2023-05-27T08:59:57;97876.88;;;21.44;39.71
78073;BME280;67281;48.770;11.440;2023-05-27T09:02:25;97883.25;;;21.51;39.66
78073;BME280;67281;48.770;11.440;2023-05-27T09:04:54;97877.91;;;21.51;39.79
78073;BME280;67281;48.770;11.440;2023-05-27T09:11:25;97875.41;;;21.50;39.21
78073;BME280;67281;48.770;11.440;2023-05-27T09:13:57;97871.41;;;21.54;39.15
78073;BME280;67281;48.770;11.440;2023-05-27T09:16:25;97871.22;;;21.55;39.09
78073;BME280;67281;48.770;11.440;2023-05-27T09:19:21;97872.56;;;21.59;38.82
78073;BME280;67281;48.770;11.440;2023-05-27T09:22:04;97867.72;;;21.55;39.30
78073;BME280;67281;48.770;11.440;2023-05-27T09:24:34;97863.91;;;21.57;38.91
78073;BME280;67281;48.770;11.440;2023-05-27T09:27:12;97863.59;;;21.60;39.21
78073;BME280;67281;48.770;11.440;2023-05-27T09:29:39;97854.41;;;21.63;39.00
78073;BME280;67281;48.770;11.440;2023-05-27T09:32:07;97859.59;;;21.64;38.96
78073;BME280;67281;48.770;11.440;2023-05-27T09:34:38;97853.25;;;21.65;38.99
78073;BME280;67281;48.770;11.440;2023-05-27T09:37:16;97852.09;;;21.68;38.88
78073;BME280;67281;48.770;11.440;2023-05-27T09:39:51;97861.78;;;21.69;38.94
78073;BME280;67281;48.770;11.440;2023-05-27T09:42:20;97854.59;;;21.70;39.26
78073;BME280;67281;48.770;11.440;2023-05-27T09:44:54;97847.28;;;21.72;38.82
78073;BME280;67281;48.770;11.440;2023-05-27T09:47:33;97851.44;;;21.74;39.20
78073;BME280;67281;48.770;11.440;2023-05-27T09:50:15;97841.47;;;21.76;39.19
78073;BME280;67281;48.770;11.440;2023-05-27T09:52:52;97842.81;;;21.80;39.45
78073;BME280;67281;48.770;11.440;2023-05-27T09:55:40;97844.31;;;21.83;38.90
78073;BME280;67281;48.770;11.440;2023-05-27T09:58:32;97827.97;;;21.86;39.18
78073;BME280;67281;48.770;11.440;2023-05-27T10:01:05;97823.63;;;21.85;38.84
78073;BME280;67281;48.770;11.440;2023-05-27T10:03:43;97836.81;;;21.86;38.81
78073;BME280;67281;48.770;11.440;2023-05-27T10:06:25;97818.63;;;21.90;38.97
78073;BME280;67281;48.770;11.440;2023-05-27T10:09:09;97820.31;;;21.91;39.08
78073;BME280;67281;48.770;11.440;2023-05-27T10:11:49;97820.31;;;21.91;38.88
78073;BME280;67281;48.770;11.440;2023-05-27T10:14:16;97822.81;;;21.92;38.83
78073;BME280;67281;48.770;11.440;2023-05-27T10:16:58;97814.13;;;21.90;38.47
78073;BME280;67281;48.770;11.440;2023-05-27T10:19:25;97817.63;;;21.91;38.28
78073;BME280;67281;48.770;11.440;2023-05-27T10:22:26;97807.63;;;21.93;38.71
78073;BME280;67281;48.770;11.440;2023-05-27T10:25:35;97811.81;;;21.95;38.89
78073;BME280;67281;48.770;11.440;2023-05-27T10:28:23;97814.31;;;21.97;38.22
78073;BME280;67281;48.770;11.440;2023-05-27T10:34:37;97813.00;;;22.01;37.97
78073;BME280;67281;48.770;11.440;2023-05-27T10:37:08;97807.34;;;22.04;37.69
78073;BME280;67281;48.770;11.440;2023-05-27T10:39:56;97805.50;;;22.05;37.63
78073;BME280;67281;48.770;11.440;2023-05-27T10:45:48;97799.84;;;22.08;38.09
78073;BME280;67281;48.770;11.440;2023-05-27T10:48:58;97797.50;;;22.13;37.96
78073;BME280;67281;48.770;11.440;2023-05-27T10:51:59;97794.69;;;22.14;37.50
78073;BME280;67281;48.770;11.440;2023-05-27T10:55:21;97793.34;;;22.18;37.90
78073;BME280;67281;48.770;11.440;2023-05-27T10:57:49;97785.50;;;22.17;38.00
78073;BME280;67281;48.770;11.440;2023-05-27T11:00:52;97794.19;;;22.19;38.16
78073;BME280;67281;48.770;11.440;2023-05-27T11:03:31;97790.00;;;22.24;37.86
78073;BME280;67281;48.770;11.440;2023-05-27T11:06:31;97787.50;;;22.23;38.19
78073;BME280;67281;48.770;11.440;2023-05-27T11:09:11;97785.50;;;22.25;37.04
78073;BME280;67281;48.770;11.440;2023-05-27T11:12:05;97782.84;;;22.25;38.29
78073;BME280;67281;48.770;11.440;2023-05-27T11:14:39;97778.16;;;22.27;37.85
78073;BME280;67281;48.770;11.440;2023-05-27T11:17:15;97774.97;;;22.32;37.54
78073;BME280;67281;48.770;11.440;2023-05-27T11:19:53;97774.63;;;22.35;37.58
78073;BME280;67281;48.770;11.440;2023-05-27T11:23:12;97763.09;;;22.34;37.41
78073;BME280;67281;48.770;11.440;2023-05-27T11:25:17;97761.28;;;22.35;37.80
78073;BME280;67281;48.770;11.440;2023-05-27T11:27:47;97756.59;;;22.37;37.68
78073;BME280;67281;48.770;11.440;2023-05-27T11:31:11;97757.09;;;22.40;37.44
78073;BME280;67281;48.770;11.440;2023-05-27T11:33:50;97755.25;;;22.41;37.97
78073;BME280;67281;48.770;11.440;2023-05-27T11:37:01;97748.75;;;22.43;37.75
78073;BME280;67281;48.770;11.440;2023-05-27T11:40:17;97745.06;;;22.44;37.25
78073;BME280;67281;48.770;11.440;2023-05-27T11:42:45;97745.56;;;22.48;37.91
78073;BME280;67281;48.770;11.440;2023-05-27T11:45:42;97736.38;;;22.50;37.63
78073;BME280;67281;48.770;11.440;2023-05-27T11:48:10;97733.72;;;22.50;37.53
78073;BME280;67281;48.770;11.440;2023-05-27T11:52:07;97731.53;;;22.54;37.80
78073;BME280;67281;48.770;11.440;2023-05-27T11:55:25;97732.19;;;22.56;37.52
78073;BME280;67281;48.770;11.440;2023-05-27T11:57:59;97730.19;;;22.58;38.33
78073;BME280;67281;48.770;11.440;2023-05-27T12:00:32;97721.34;;;22.57;37.92
78073;BME280;67281;48.770;11.440;2023-05-27T12:03:01;97729.84;;;22.61;37.16
78073;BME280;67281;48.770;11.440;2023-05-27T12:05:38;97719.81;;;22.63;36.99
78073;BME280;67281;48.770;11.440;2023-05-27T12:08:15;97722.16;;;22.66;37.72
78073;BME280;67281;48.770;11.440;2023-05-27T12:11:03;97714.97;;;22.67;37.37
78073;BME280;67281;48.770;11.440;2023-05-27T12:13:34;97716.47;;;22.69;37.53
78073;BME280;67281;48.770;11.440;2023-05-27T12:16:01;97716.13;;;22.72;36.64
78073;BME280;67281;48.770;11.440;2023-05-27T12:18:30;97706.25;;;22.73;37.14
78073;BME280;67281;48.770;11.440;2023-05-27T12:21:11;97701.94;;;22.72;37.43
78073;BME280;67281;48.770;11.440;2023-05-27T12:23:55;97702.59;;;22.74;37.17
78073;BME280;67281;48.770;11.440;2023-05-27T12:26:36;97693.06;;;22.79;37.14
78073;BME280;67281;48.770;11.440;2023-05-27T12:29:11;97691.91;;;22.82;37.51
78073;BME280;67281;48.770;11.440;2023-05-27T12:31:48;97686.56;;;22.82;37.56
78073;BME280;67281;48.770;11.440;2023-05-27T12:34:26;97683.72;;;22.83;37.69
78073;BME280;67281;48.770;11.440;2023-05-27T12:36:53;97689.06;;;22.83;37.20
78073;BME280;67281;48.770;11.440;2023-05-27T12:39:20;97687.69;;;22.87;37.85
78073;BME280;67281;48.770;11.440;2023-05-27T12:41:48;97682.19;;;22.89;37.51
78073;BME280;67281;48.770;11.440;2023-05-27T12:44:39;97681.66;;;22.93;37.86
78073;BME280;67281;48.770;11.440;2023-05-27T12:47:34;97681.31;;;22.97;37.41
78073;BME280;67281;48.770;11.440;2023-05-27T12:52:57;97668.44;;;23.00;37.65
78073;BME280;67281;48.770;11.440;2023-05-27T12:55:25;97668.88;;;23.04;37.13
78073;BME280;67281;48.770;11.440;2023-05-27T12:57:53;97675.72;;;23.06;37.28
78073;BME280;67281;48.770;11.440;2023-05-27T13:00:32;97661.34;;;23.07;37.40
78073;BME280;67281;48.770;11.440;2023-05-27T13:03:19;97663.50;;;23.12;37.62
78073;BME280;67281;48.770;11.440;2023-05-27T13:05:57;97662.84;;;23.10;37.54
78073;BME280;67281;48.770;11.440;2023-05-27T13:08:28;97658.16;;;23.12;37.83
78073;BME280;67281;48.770;11.440;2023-05-27T13:11:01;97661.13;;;23.17;37.24
78073;BME280;67281;48.770;11.440;2023-05-27T13:13:28;97661.13;;;23.17;37.24
78073;BME280;67281;48.770;11.440;2023-05-27T13:16:19;97658.44;;;23.17;37.78
78073;BME280;67281;48.770;11.440;2023-05-27T13:19:02;97648.59;;;23.17;37.71
78073;BME280;67281;48.770;11.440;2023-05-27T13:21:48;97646.91;;;23.16;36.99
78073;BME280;67281;48.770;11.440;2023-05-27T13:24:18;97645.91;;;23.17;36.96
78073;BME280;67281;48.770;11.440;2023-05-27T13:26:50;97649.72;;;23.23;36.82
78073;BME280;67281;48.770;11.440;2023-05-27T13:29:24;97647.69;;;23.25;37.04
78073;BME280;67281;48.770;11.440;2023-05-27T13:31:52;97636.66;;;23.28;37.05
78073;BME280;67281;48.770;11.440;2023-05-27T13:34:19;97637.31;;;23.30;37.09
78073;BME280;67281;48.770;11.440;2023-05-27T13:37:29;97630.94;;;23.31;37.21
78073;BME280;67281;48.770;11.440;2023-05-27T13:40:06;97635.75;;;23.36;37.52
78073;BME280;67281;48.770;11.440;2023-05-27T13:42:43;97631.53;;;23.41;37.33
78073;BME280;67281;48.770;11.440;2023-05-27T13:45:10;97624.72;;;23.39;36.56
78073;BME280;67281;48.770;11.440;2023-05-27T13:47:50;97623.88;;;23.38;37.02
78073;BME280;67281;48.770;11.440;2023-05-27T13:50:40;97618.34;;;23.40;35.93
78073;BME280;67281;48.770;11.440;2023-05-27T13:53:40;97609.13;;;23.42;36.67
78073;BME280;67281;48.770;11.440;2023-05-27T13:56:13;97614.50;;;23.42;36.57
78073;BME280;67281;48.770;11.440;2023-05-27T13:59:01;97613.66;;;23.42;36.51
78073;BME280;67281;48.770;11.440;2023-05-27T14:01:37;97618.47;;;23.46;36.63
78073;BME280;67281;48.770;11.440;2023-05-27T14:04:13;97610.25;;;23.48;36.87
78073;BME280;67281;48.770;11.440;2023-05-27T14:07:07;97603.53;;;23.52;37.46
78073;BME280;67281;48.770;11.440;2023-05-27T14:10:06;97603.22;;;23.55;37.15
78073;BME280;67281;48.770;11.440;2023-05-27T14:12:32;97602.84;;;23.58;37.08
78073;BME280;67281;48.770;11.440;2023-05-27T14:15:00;97599.63;;;23.63;37.53
78073;BME280;67281;48.770;11.440;2023-05-27T14:20:34;97592.97;;;23.58;37.28
78073;BME280;67281;48.770;11.440;2023-05-27T14:23:04;97577.22;;;23.64;36.37
78073;BME280;67281;48.770;11.440;2023-05-27T14:26:30;97581.75;;;23.63;36.10
78073;BME280;67281;48.770;11.440;2023-05-27T14:29:03;97584.78;;;23.60;37.06
78073;BME280;67281;48.770;11.440;2023-05-27T14:32:43;97572.34;;;23.67;37.47
78073;BME280;67281;48.770;11.440;2023-05-27T14:35:45;97572.16;;;23.69;36.71
78073;BME280;67281;48.770;11.440;2023-05-27T14:38:31;97572.16;;;23.69;36.82
78073;BME280;67281;48.770;11.440;2023-05-27T14:40:58;97562.75;;;23.73;36.49
78073;BME280;67281;48.770;11.440;2023-05-27T14:43:26;97558.22;;;23.73;36.99
78073;BME280;67281;48.770;11.440;2023-05-27T14:45:56;97559.91;;;23.74;36.49
78073;BME280;67281;48.770;11.440;2023-05-27T14:48:53;97562.00;;;23.79;36.96
78073;BME280;67281;48.770;11.440;2023-05-27T14:51:29;97560.63;;;23.83;36.82
78073;BME280;67281;48.770;11.440;2023-05-27T14:54:04;97561.06;;;23.86;36.58
78073;BME280;67281;48.770;11.440;2023-05-27T14:56:37;97556.56;;;23.87;37.43
78073;BME280;67281;48.770;11.440;2023-05-27T14:59:04;97565.13;;;23.82;36.78
78073;BME280;67281;48.770;11.440;2023-05-27T15:01:49;97556.56;;;23.87;37.07
78073;BME280;67281;48.770;11.440;2023-05-27T15:08:18;97558.13;;;23.96;37.16
78073;BME280;67281;48.770;11.440;2023-05-27T15:10:45;97548.25;;;23.97;36.73
78073;BME280;67281;48.770;11.440;2023-05-27T15:13:14;97547.06;;;23.99;36.84
78073;BME280;67281;48.770;11.440;2023-05-27T15:15:58;97547.72;;;24.01;37.08
78073;BME280;67281;48.770;11.440;2023-05-27T15:18:26;97545.03;;;24.01;36.90
78073;BME280;67281;48.770;11.440;2023-05-27T15:21:18;97539.31;;;24.04;36.27
78073;BME280;67281;48.770;11.440;2023-05-27T15:23:52;97527.56;;;24.05;37.27
78073;BME280;67281;48.770;11.440;2023-05-27T15:26:19;97536.53;;;24.12;36.16
78073;BME280;67281;48.770;11.440;2023-05-27T15:28:49;97532.00;;;24.13;36.51
78073;BME280;67281;48.770;11.440;2023-05-27T15:31:20;97536.53;;;24.12;36.70
78073;BME280;67281;48.770;11.440;2023-05-27T15:34:10;97535.34;;;24.15;37.21
78073;BME280;67281;48.770;11.440;2023-05-27T15:37:28;97534.97;;;24.18;37.46
78073;BME280;67281;48.770;11.440;2023-05-27T15:40:05;97531.63;;;24.16;37.61
78073;BME280;67281;48.770;11.440;2023-05-27T15:42:35;97528.13;;;24.15;36.73
78073;BME280;67281;48.770;11.440;2023-05-27T15:45:15;97526.47;;;24.14;36.63
78073;BME280;67281;48.770;11.440;2023-05-27T15:47:45;97524.44;;;24.16;36.85
78073;BME280;67281;48.770;11.440;2023-05-27T15:50:15;97521.56;;;24.18;37.29
78073;BME280;67281;48.770;11.440;2023-05-27T15:52:51;97516.59;;;24.15;36.53
78073;BME280;67281;48.770;11.440;2023-05-27T15:55:18;97525.81;;;24.12;36.08
78073;BME280;67281;48.770;11.440;2023-05-27T15:58:04;97514.38;;;24.18;36.53
78073;BME280;67281;48.770;11.440;2023-05-27T16:00:32;97511.97;;;24.23;36.49
78073;BME280;67281;48.770;11.440;2023-05-27T16:03:04;97502.75;;;24.26;36.56
78073;BME280;67281;48.770;11.440;2023-05-27T16:05:34;97510.41;;;24.29;37.26
78073;BME280;67281;48.770;11.440;2023-05-27T16:10:55;97508.94;;;24.27;37.41
78073;BME280;67281;48.770;11.440;2023-05-27T16:13:23;97507.09;;;24.27;37.77
78073;BME280;67281;48.770;11.440;2023-05-27T16:15:51;97506.25;;;24.27;37.31
78073;BME280;67281;48.770;11.440;2023-05-27T16:18:26;97506.41;;;24.25;36.60
78073;BME280;67281;48.770;11.440;2023-05-27T16:21:00;97504.59;;;24.26;37.26
78073;BME280;67281;48.770;11.440;2023-05-27T16:23:33;97503.41;;;24.28;37.03
78073;BME280;67281;48.770;11.440;2023-05-27T16:26:01;97493.97;;;24.32;36.94
78073;BME280;67281;48.770;11.440;2023-05-27T16:28:30;97501.81;;;24.34;37.78
78073;BME280;67281;48.770;11.440;2023-05-27T16:31:01;97503.47;;;24.35;37.24
78073;BME280;67281;48.770;11.440;2023-05-27T16:33:28;97500.16;;;24.33;37.08
78073;BME280;67281;48.770;11.440;2023-05-27T16:35:56;97499.13;;;24.34;37.41
78073;BME280;67281;48.770;11.440;2023-05-27T16:38:23;97488.88;;;24.37;37.32